SLLP/LPB METAR and TAF weather

Enter ICAO airport designator
Station Type Date Time Source
SLLP METAR 2021/06/24 04:00 UTC NOAA

SLLP 240400Z 23004KT 190V280 8000 NSC 03/M11 Q1040


Station Type Date Time Source
SLLP Decoded METAR 2021/06/24 04:00 UTC NOAA

La Paz / Alto, Bolivia (SLLP) 16-31S 068-11W 4038M
Jun 24, 2021 - 12:00 AM EDT / 2021.06.24 0400 UTC
Wind: from the SW (230 degrees) at 5 MPH (4 KT) (direction variable):0
Visibility: 4 mile(s):0
Temperature: 37 F (3 C)
Dew Point: 12 F (-11 C)
Relative Humidity: 34%
Pressure (altimeter): 30.71 in. Hg (1040 hPa)
ob: SLLP 240400Z 23004KT 190V280 8000 NSC 03/M11 Q1040
cycle: 4

Station Type Date Time Source
SLLP TAF 2021/06/24 04:23 UTC NOAA

TAF SLLP 240400Z 2404/2504 32005KT 9999 NSC TX14/2420Z TNM04/2411Z
BECMG 2413/2415 26010KT
TEMPO 2418/2422 29015G30KT FEW020

Example: see airport list